25. Juni 2022

Uhrzeit Code Wetter Temp. Sichtweite Wolkendecke Wind METAR/SPECI
1:55 am
V
61 °F 6¼ mi+ - 190° 190° 5 kt METAR EHLE 242355Z AUTO 19005KT 9999 NCD 16/15 Q1007
1:25 am
V
61 °F 6¼ mi+ - 190° 190° 5 kt METAR EHLE 242325Z AUTO 19005KT 9999 NCD 16/15 Q1007
12:55 am
V
61 °F 5⅝ mi - 150° 150° 5 kt METAR EHLE 242255Z AUTO 15005KT 9000 NCD 16/16 Q1007
12:25 am
V
61 °F 5⅝ mi - 130° 130° 5 kt METAR EHLE 242225Z AUTO 13005KT 9000 NCD 16/16 Q1007

24. Juni 2022

Uhrzeit Code Wetter Temp. Sichtweite Wolkendecke Wind METAR/SPECI
11:55 pm
V
63 °F 6¼ mi+ - 130° 130° 3 kt METAR EHLE 242155Z AUTO 13003KT 9999 NCD 17/16 Q1007
11:25 pm
V
64 °F 6¼ mi+ - Var Var 2 kt METAR EHLE 242125Z AUTO VRB02KT 9999 NSC 18/17 Q1007
10:55 pm
V
64 °F 6¼ mi+ - 100° 100° 4 kt METAR EHLE 242055Z AUTO 10004KT 070V130 9999 NSC 18/17 Q1007
10:25 pm
V
64 °F 6¼ mi+ - 110° 110° 3 kt METAR EHLE 242025Z AUTO 11003KT 9999 NSC 18/17 Q1007
9:55 pm
V
66 °F 6¼ mi+ - 130° 130° 3 kt METAR EHLE 241955Z AUTO 13003KT 9999 NSC 19/17 Q1007 NOSIG
9:25 pm
V
66 °F 6¼ mi+ - 130° 130° 5 kt METAR EHLE 241925Z AUTO 13005KT 9999 NSC 19/17 Q1006 NOSIG
8:55 pm
V
68 °F 6¼ mi+ - 150° 150° 3 kt METAR EHLE 241855Z AUTO 15003KT 9999 NSC 20/16 Q1006 NOSIG
8:25 pm
V
68 °F 6¼ mi+ - Var Var 1 kt METAR EHLE 241825Z AUTO VRB01KT 9999 NSC 20/17 Q1006 NOSIG
7:55 pm
V
68 °F 6¼ mi+ - 330° 330° 4 kt METAR EHLE 241755Z AUTO 33004KT 9999 NSC 20/17 Q1006 NOSIG
7:25 pm
V
68 °F 6¼ mi+ - 320° 320° 7 kt METAR EHLE 241725Z AUTO 32007KT 9999 -RA FEW040 20/16 Q1006 NOSIG
6:55 pm
V
68 °F 6¼ mi+ - 310° 310° 8 kt METAR EHLE 241655Z AUTO 31008KT 280V340 9999 FEW015CB SCT034 20/16 Q1006 NOSIG
6:25 pm
V
66 °F 6¼ mi+ 3.200 ft 290° 290° 12 kt METAR EHLE 241625Z AUTO 29012KT 250V320 9999 FEW015CB SCT026 BKN032 BKN037 19/16 Q1006 TEMPO 5000 SHRA SCT020CB
5:55 pm
V
72 °F 6¼ mi+ - 190° 190° 7 kt METAR EHLE 241555Z AUTO 19007KT 170V240 9999 FEW026CB 22/17 Q1005 TEMPO FM1630 4000 SHRA SCT020CB
5:25 pm
V
72 °F 6¼ mi+ - 150° 150° 7 kt METAR EHLE 241525Z AUTO 15007KT 110V200 9999 FEW023 SCT030 22/18 Q1006 TEMPO FM1630 4000 SHRA SCT020CB
4:55 pm
M
73 °F 6¼ mi+ 2.300 ft 190° 190° 6 kt METAR EHLE 241455Z AUTO 19006KT 150V230 9999 BKN023 BKN031 23/18 Q1006 NOSIG
4:25 pm
V
73 °F 6¼ mi+ - 190° 190° 7 kt METAR EHLE 241425Z AUTO 19007KT 130V220 9999 FEW026 SCT030 23/18 Q1006 NOSIG
3:55 pm
V
73 °F 6¼ mi+ 3.100 ft 210° 210° 6 kt METAR EHLE 241355Z AUTO 21006KT 170V240 9999 SCT025 BKN031 BKN039 23/18 Q1006 NOSIG
3:25 pm
V
73 °F 6¼ mi+ - 210° 210° 3 kt METAR EHLE 241325Z AUTO 21003KT 150V270 9999 NSC 23/18 Q1005 NOSIG
2:55 pm
V
72 °F 6¼ mi+ - 190° 190° 7 kt METAR EHLE 241255Z AUTO 19007KT 9999 NSC 22/17 Q1006 TEMPO 5000 SHRA BKN020 SCT025CB
2:25 pm
M
73 °F 6¼ mi+ 2.200 ft 210° 210° 9 kt METAR EHLE 241225Z AUTO 21009KT 170V260 9999 BKN022 BKN028 23/18 Q1006 TEMPO FM1300 5000 SHRA BKN020 SCT025CB
1:55 pm
M
72 °F 6¼ mi+ 2.100 ft 230° 230° 9 kt METAR EHLE 241155Z AUTO 23009KT 180V270 9999 SCT018 BKN021 BKN026 22/18 Q1006 NOSIG
1:25 pm
V
70 °F 6¼ mi+ - 230° 230° 9 kt METAR EHLE 241125Z AUTO 23009KT 200V260 9999 NSC 21/17 Q1006 NOSIG
12:55 pm
V
70 °F 6¼ mi+ - 230° 230° 10 kt METAR EHLE 241055Z AUTO 23010KT 190V260 9999 FEW013 SCT019 21/18 Q1006 NOSIG
12:25 pm
V
68 °F 6¼ mi+ - 230° 230° 9 kt METAR EHLE 241025Z AUTO 23009KT 190V260 9999 FEW013 20/18 Q1006 NOSIG
11:55 am
V
68 °F 6¼ mi+ - 230° 230° 8 kt METAR EHLE 240955Z AUTO 23008KT 9999 FEW011 20/18 Q1006 NOSIG
11:25 am
V
68 °F 6¼ mi+ - 220° 220° 9 kt METAR EHLE 240925Z AUTO 22009KT 190V250 9999 FEW007 SCT010 20/18 Q1006 NOSIG
10:55 am
M
66 °F 6¼ mi+ 1.000 ft 220° 220° 7 kt METAR EHLE 240855Z AUTO 22007KT 190V250 9999 FEW007 BKN010 19/18 Q1006 NOSIG
10:25 am
V
66 °F 6¼ mi+ - 220° 220° 6 kt METAR EHLE 240825Z AUTO 22006KT 190V250 9999 -RA NSC 19/18 Q1006 NOSIG
9:55 am
I
66 °F 6¼ mi+ 900 ft 220° 220° 7 kt METAR EHLE 240755Z AUTO 22007KT 190V250 9999 FEW006 SCT007 BKN009 19/18 Q1006 NOSIG
9:25 am
V
66 °F 6¼ mi+ - 230° 230° 5 kt METAR EHLE 240725Z AUTO 23005KT 190V260 9999 NSC 19/18 Q1006 NOSIG
8:55 am
V
66 °F 6¼ mi+ - Var Var 2 kt METAR EHLE 240655Z AUTO VRB02KT 9999 -RA NSC 19/18 Q1005 RERA REDZ NOSIG
8:25 am
V
64 °F 6¼ mi+ - 310° 310° 3 kt METAR EHLE 240625Z AUTO 31003KT 270V350 9999 -RA NSC 18/17 Q1005 NOSIG
7:55 am
V
64 °F 6¼ mi+ 4.500 ft 300° 300° 5 kt METAR EHLE 240555Z AUTO 30005KT 260V330 9999 -RADZ BKN045 18/17 Q1005 NOSIG
7:25 am
V
64 °F 6¼ mi+ - 310° 310° 6 kt METAR EHLE 240525Z AUTO 31006KT 270V340 9999 FEW046 18/17 Q1005 NOSIG
6:55 am
V
64 °F 6¼ mi+ - 290° 290° 9 kt METAR EHLE 240455Z AUTO 29009KT 250V330 9999 NSC 18/17 Q1005
6:25 am
V
64 °F 6¼ mi+ 4.900 ft 300° 300° 8 kt METAR EHLE 240425Z AUTO 30008KT 260V330 9999 -SHRA FEW015CB SCT035 BKN049 18/17 Q1006 REDZ
5:55 am
M
64 °F 6¼ mi+ 1.500 ft 270° 270° 9 kt METAR EHLE 240355Z AUTO 27009KT 240V300 9999 SHRA BKN015CB 18/17 Q1006 RETS
5:25 am
V
64 °F 6¼ mi+ - 260° 260° 10 kt METAR EHLE 240325Z AUTO 26010KT 230V290 9999 SHRA FEW015CB SCT039 18/17 Q1006 REDZ
4:55 am
M
66 °F 5 mi 1.200 ft 260° 260° 6 kt METAR EHLE 240255Z AUTO 26006KT 8000 -RA FEW006 SCT009 BKN012 FEW015CB 19/19 Q1006 RERA REDZ
4:25 am
V
66 °F 5 mi 3.400 ft 230° 230° 5 kt METAR EHLE 240225Z AUTO 23005KT 200V260 8000 -RA FEW017/// BKN034/// BKN042/// 19/19 Q1007 RETSRA
3:55 am
V
68 °F 6¼ mi+ - 160° 160° 8 - 19 kt METAR EHLE 240155Z AUTO 16008G19KT 070V200 9999 +TSRA FEW015CB SCT047 20/19 Q1006 REDZ
3:25 am
V
68 °F 6¼ mi+ - 010° 010° 10 kt METAR EHLE 240125Z AUTO 01010KT 330V030 9999 FEW041 20/19 Q1005 REDZ
2:55 am
V
68 °F 6¼ mi+ - 300° 300° 6 kt METAR EHLE 240055Z AUTO 30006KT 9999 -RA FEW015CB 20/19 Q1006 RETSRA
2:25 am
M
70 °F 6¼ mi+ 2.800 ft 260° 260° 6 kt METAR EHLE 240025Z AUTO 26006KT 230V290 9999 -TSRA FEW015CB SCT024 BKN028 21/19 Q1007
1:55 am
V
70 °F 6¼ mi+ - Var Var 3 kt METAR EHLE 232355Z AUTO VRB03KT 9999 TS FEW015CB 21/19 Q1007
1:25 am
V
70 °F 6¼ mi+ - 290° 290° 9 kt METAR EHLE 232325Z AUTO 29009KT 260V030 9999 -RA FEW015CB 21/19 Q1006 RERA
12:55 am
M
70 °F 3¾ mi - 290° 290° 3 kt METAR EHLE 232255Z AUTO 29003KT 260V330 6000 SHRA FEW015CB 21/20 Q1007
12:25 am
V
70 °F 5⅝ mi - Var Var 1 kt METAR EHLE 232225Z AUTO VRB01KT 9000 -RA FEW015CB 21/20 Q1008

23. Juni 2022

Uhrzeit Code Wetter Temp. Sichtweite Wolkendecke Wind METAR/SPECI
11:55 pm
V
72 °F 6¼ mi+ - Var Var 2 kt METAR EHLE 232155Z AUTO VRB02KT 9999 -SHRA FEW015CB 22/19 Q1008
11:25 pm
V
72 °F 6¼ mi+ - Var Var 2 kt METAR EHLE 232125Z AUTO VRB02KT 9999 -RA FEW015CB 22/20 Q1008
10:55 pm
V
73 °F 6¼ mi+ - 300° 300° 6 kt METAR EHLE 232055Z AUTO 30006KT 270V330 9999 -RA NSC 23/19 Q1008
10:25 pm
V
75 °F 6¼ mi+ - 280° 280° 9 kt METAR EHLE 232025Z AUTO 28009KT 9999 -RA FEW034 24/19 Q1008
9:55 pm
V
81 °F 6¼ mi+ - 330° 330° 2 kt METAR EHLE 231955Z AUTO 33002KT 9999 NSC 27/17 Q1008
9:25 pm
V
82 °F 6¼ mi+ - Var Var 1 kt METAR EHLE 231925Z AUTO VRB01KT 9999 NSC 28/16 Q1007 NOSIG
8:55 pm
V
82 °F 6¼ mi+ - Var Var 1 kt METAR EHLE 231855Z AUTO VRB01KT 9999 NSC 28/18 Q1008 NOSIG
8:25 pm
V
82 °F 6¼ mi+ - 210° 210° 2 kt METAR EHLE 231825Z AUTO 21002KT 9999 NSC 28/17 Q1008 NOSIG
7:55 pm
V
82 °F 6¼ mi+ - 210° 210° 4 kt METAR EHLE 231755Z AUTO 21004KT 180V240 9999 NSC 28/16 Q1008 NOSIG
7:25 pm
V
84 °F 6¼ mi+ - 200° 200° 6 kt METAR EHLE 231725Z AUTO 20006KT 150V230 9999 NSC 29/16 Q1008 NOSIG
6:55 pm
V
86 °F 6¼ mi+ - 210° 210° 8 kt METAR EHLE 231655Z AUTO 21008KT 170V240 9999 NSC 30/16 Q1008 TEMPO 6000 SHRA SCT045CB
6:25 pm
V
86 °F 6¼ mi+ - 200° 200° 10 kt METAR EHLE 231625Z AUTO 20010KT 160V230 9999 NSC 30/15 Q1008 TEMPO FM1715 VRB12KT 6000 SHRA SCT045CB
5:55 pm
V
86 °F 6¼ mi+ - 200° 200° 11 kt METAR EHLE 231555Z AUTO 20011KT 160V230 9999 NSC 30/15 Q1008 NOSIG
5:25 pm
V
86 °F 6¼ mi+ - 200° 200° 9 kt METAR EHLE 231525Z AUTO 20009KT 160V240 9999 NCD 30/16 Q1008 NOSIG
4:55 pm
V
86 °F 6¼ mi+ - 210° 210° 9 kt METAR EHLE 231455Z AUTO 21009KT 140V250 9999 NCD 30/17 Q1008 NOSIG
4:25 pm
V
86 °F 6¼ mi+ - 170° 170° 8 kt METAR EHLE 231425Z AUTO 17008KT 120V230 9999 NSC 30/16 Q1009 NOSIG
3:55 pm
V
86 °F 6¼ mi+ - 150° 150° 9 kt METAR EHLE 231355Z AUTO 15009KT 110V210 9999 NSC 30/17 Q1009 NOSIG
3:25 pm
V
86 °F 6¼ mi+ - 170° 170° 7 kt METAR EHLE 231325Z AUTO 17007KT 100V230 9999 NSC 30/17 Q1009 NOSIG
2:55 pm
V
84 °F 6¼ mi+ - 190° 190° 10 kt METAR EHLE 231255Z AUTO 19010KT 150V240 9999 NCD 29/16 Q1009 NOSIG
2:25 pm
V
84 °F 6¼ mi+ - 160° 160° 8 kt METAR EHLE 231225Z AUTO 16008KT 110V210 9999 NSC 29/17 Q1010 NOSIG
1:55 pm
V
82 °F 6¼ mi+ - 150° 150° 7 kt METAR EHLE 231155Z AUTO 15007KT 110V180 9999 NCD 28/17 Q1010 NOSIG
1:25 pm
V
82 °F 6¼ mi+ - 160° 160° 7 kt METAR EHLE 231125Z AUTO 16007KT 110V200 9999 NCD 28/17 Q1010 NOSIG
12:55 pm
V
81 °F 6¼ mi+ - 130° 130° 6 kt METAR EHLE 231055Z AUTO 13006KT 080V210 9999 NCD 27/16 Q1011 NOSIG
12:25 pm
V
81 °F 6¼ mi+ - 120° 120° 7 kt METAR EHLE 231025Z AUTO 12007KT 070V170 9999 NCD 27/18 Q1011 NOSIG
11:55 am
V
77 °F 6¼ mi+ - 120° 120° 7 kt METAR EHLE 230955Z AUTO 12007KT 090V160 9999 NCD 25/15 Q1011 NOSIG
11:25 am
V
77 °F 6¼ mi+ - 110° 110° 7 kt METAR EHLE 230925Z AUTO 11007KT 080V160 9999 NCD 25/15 Q1011 NOSIG
10:55 am
V
75 °F 6¼ mi+ - 090° 090° 7 kt METAR EHLE 230855Z AUTO 09007KT 050V150 9999 NCD 24/15 Q1011 NOSIG
10:25 am
V
73 °F 6¼ mi+ - 100° 100° 7 kt METAR EHLE 230825Z AUTO 10007KT 050V130 9999 NCD 23/14 Q1011 NOSIG
9:55 am
V
72 °F 6¼ mi+ - 100° 100° 7 kt METAR EHLE 230755Z AUTO 10007KT 060V140 9999 NCD 22/15 Q1012 NOSIG
9:25 am
V
68 °F 6¼ mi+ - 100° 100° 7 kt METAR EHLE 230725Z AUTO 10007KT 060V140 9999 NCD 20/14 Q1012 NOSIG
8:55 am
V
66 °F 6¼ mi+ - 100° 100° 6 kt METAR EHLE 230655Z AUTO 10006KT 060V140 9999 NCD 19/14 Q1012 NOSIG
8:25 am
V
63 °F 6¼ mi+ - 090° 090° 8 kt METAR EHLE 230625Z AUTO 09008KT 060V130 9999 NCD 17/14 Q1012 NOSIG
7:55 am
V
61 °F 6¼ mi+ - 090° 090° 5 kt METAR EHLE 230555Z AUTO 09005KT 050V130 9999 NCD 16/13 Q1012 NOSIG
7:25 am
V
59 °F 6¼ mi+ - 060° 060° 7 kt METAR EHLE 230525Z AUTO 06007KT 030V090 9999 NCD 15/13 Q1012 NOSIG
6:55 am
V
57 °F 6¼ mi+ - 060° 060° 5 kt METAR EHLE 230455Z AUTO 06005KT 040V100 9999 NCD 14/12 Q1012 NOSIG
6:25 am
V
55 °F 6¼ mi+ - 060° 060° 5 kt METAR EHLE 230425Z AUTO 06005KT 9999 NCD 13/12 Q1012
5:55 am
V
55 °F 6¼ mi+ - 070° 070° 4 kt METAR EHLE 230355Z AUTO 07004KT 040V100 9999 NCD 13/12 Q1012
5:25 am
V
55 °F 6¼ mi+ - 060° 060° 5 kt METAR EHLE 230325Z AUTO 06005KT 9999 NCD 13/12 Q1012
4:55 am
V
54 °F 6¼ mi+ - 060° 060° 5 kt METAR EHLE 230255Z AUTO 06005KT 9999 NCD 12/12 Q1013
4:25 am
V
55 °F 6¼ mi+ - 070° 070° 7 kt METAR EHLE 230225Z AUTO 07007KT 040V100 9999 NSC 13/12 Q1013
3:55 am
V
55 °F 6¼ mi+ - 050° 050° 8 kt METAR EHLE 230155Z AUTO 05008KT 9999 NSC 13/12 Q1013
3:25 am
V
55 °F 6¼ mi+ - 070° 070° 6 kt METAR EHLE 230125Z AUTO 07006KT 050V110 9999 NSC 13/12 Q1013
2:55 am
V
57 °F 6¼ mi+ - 070° 070° 7 kt METAR EHLE 230055Z AUTO 07007KT 040V100 9999 NCD 14/12 Q1013
2:25 am
V
57 °F 6¼ mi+ - 060° 060° 7 kt METAR EHLE 230025Z AUTO 06007KT 9999 NCD 14/13 Q1013
1:55 am
V
57 °F 6¼ mi+ - 060° 060° 7 kt METAR EHLE 222355Z AUTO 06007KT 9999 NCD 14/13 Q1013
1:25 am
V
59 °F 6¼ mi+ - 070° 070° 7 kt METAR EHLE 222325Z AUTO 07007KT 9999 NCD 15/13 Q1013
12:55 am
V
59 °F 6¼ mi+ - 070° 070° 6 kt METAR EHLE 222255Z AUTO 07006KT 9999 NSC 15/13 Q1013
12:25 am
V
59 °F 6¼ mi+ - 050° 050° 7 kt METAR EHLE 222225Z AUTO 05007KT 9999 NCD 15/13 Q1013

22. Juni 2022

Uhrzeit Code Wetter Temp. Sichtweite Wolkendecke Wind METAR/SPECI
11:55 pm
V
61 °F 6¼ mi+ - 050° 050° 8 kt METAR EHLE 222155Z AUTO 05008KT 9999 NCD 16/13 Q1013
11:25 pm
V
61 °F 6¼ mi+ - 040° 040° 9 kt METAR EHLE 222125Z AUTO 04009KT 9999 NCD 16/13 Q1013
10:55 pm
V
63 °F 6¼ mi+ - 040° 040° 9 kt METAR EHLE 222055Z AUTO 04009KT 9999 NSC 17/14 Q1013
10:25 pm
V
63 °F 6¼ mi+ - 040° 040° 10 kt METAR EHLE 222025Z AUTO 04010KT 9999 NSC 17/14 Q1013 NOSIG
9:55 pm
V
66 °F 6¼ mi+ - 040° 040° 8 kt METAR EHLE 221955Z AUTO 04008KT 9999 NCD 19/14 Q1012 NOSIG
9:25 pm
V
68 °F 6¼ mi+ - 030° 030° 11 kt METAR EHLE 221925Z AUTO 03011KT 9999 NCD 20/15 Q1012 NOSIG
8:55 pm
V
70 °F 6¼ mi+ - 020° 020° 11 kt METAR EHLE 221855Z AUTO 02011KT 9999 NCD 21/15 Q1012 NOSIG
8:25 pm
V
70 °F 6¼ mi+ - 010° 010° 10 kt METAR EHLE 221825Z AUTO 01010KT 9999 NCD 21/16 Q1012 NOSIG
7:25 pm
V
72 °F 6¼ mi+ - 360° 360° 9 kt METAR EHLE 221725Z AUTO 36009KT 320V030 9999 NCD 22/15 Q1012 NOSIG
6:55 pm
V
72 °F 6¼ mi+ - 350° 350° 9 kt METAR EHLE 221655Z AUTO 35009KT 9999 NCD 22/14 Q1012 NOSIG
6:25 pm
V
72 °F 6¼ mi+ - 360° 360° 9 kt METAR EHLE 221625Z AUTO 36009KT 310V020 9999 NCD 22/14 Q1012 NOSIG
5:55 pm
V
72 °F 6¼ mi+ - 350° 350° 9 kt METAR EHLE 221555Z AUTO 35009KT 320V030 9999 NCD 22/14 Q1012 NOSIG
5:25 pm
V
73 °F 6¼ mi+ - 350° 350° 10 kt METAR EHLE 221525Z AUTO 35010KT 320V030 9999 NCD 23/14 Q1012 NOSIG
4:55 pm
V
72 °F 6¼ mi+ - 010° 010° 10 kt METAR EHLE 221455Z AUTO 01010KT 330V040 9999 NCD 22/12 Q1013 NOSIG
Ältere Daten

Laden Sie unsere App herunter

Einfacher Zugriff auf das gesamte Flugwetter auf Ihrem Mobiltelefon und Tablet.
Mit vielen Funktionen, die auf der Website nicht verfügbar sind, wie Offline-Unterstützung und eine persönliche Flughafenliste.

Wir und Dritte verfolgen dein Internetverhalten auf unserer Website mit Cookies. Wenn du fortfährst, gehen wir davon aus, dass du mit unserer Cookie-Richtlinie einverstanden bist. Mehr erfahren